Portada
METAR-TAF:

METAR-TAF

Aeroports :

Vientiane, Laos

latitud: 17-57N, longitud: 102-34E, altitud: 171 m

Observació

L'informe es va fer fa 20 minuts, a les 13:30 UTC
Vent 4 kt del Sud
Temperatura 30°C
Humitat 66%
Pressió 1007 hPa
Visibilitat: 4000 m
Cel ennuvolat a una alçada de 4000 ft
boirina

METAR: VLVT 201330Z 19004KT 4000 BR BKN040 30/23 Q1007 NOSIG

Hora: 20:50 (13:50 UTC)

Pronòstic

L'informe es va fer fa 2 hores i 50 minuts, a les 11:00 UTC
Pronòstic vàlid del 20 a les 12 UTC al 21 a les 12 UTC
Vent 4 kt del Sud
Visibilitat: 8000 m
Núvols disperses a una alçada de 2000 ft
Núvols disperses a una alçada de 5000 ft
Temporalment
l' 20 a les 14 UTC al 20 a les 20 UTC
Visibilitat: 4000 m
Escasses núvols a una alçada de 2000 ft
Núvols disperses a una alçada de 5000 ft
boirina

TAF: VLVT 201100Z 2012/2112 18004KT 8000 SCT020 SCT050 TEMPO 2014/2020 4000 BR FEW020 SCT050

Observacions i pronòstics meteorològics de més de 4000 aeroports (METAR i TAF).

Les estacions disponibles són els punts grocs i vermells al mapa.

Posi el ratolí al punt desitjat per veure el nom de l'estació.

Feu clic per veure les observacions i els pronòstics meteorològics.

Per canviar el mapa: feu clic els botons verds amb una creu de color negre per apropar; al botó verd amb un guió per allunyar la imatge; o en les fletxes verdes per a mapes adjacents.


METAR-TAF: